Time;durP1;ratioP1;P1;durP2;ratioP2;P2;SDS_P1;SDS_P2;PMS_P1;PMS_P2;Temp;Humidity;BMP_temperature;BMP_pressure;BME280_temperature;BME280_humidity;BME280_pressure;Samples;Min_cycle;Max_cycle;Signal;HPM_P1;HPM_P2
2022/03/05 00:00:38;;;;;;;67.60;28.50;;;;;;;1.21;58.68;94575.03;5072438;28;20155;-80
2022/03/05 00:03:04;;;;;;;64.17;24.37;;;;;;;1.58;58.60;94642.00;5072191;28;20170;-80
2022/03/05 00:05:36;;;;;;;56.40;20.73;;;;;;;1.16;59.22;94581.69;5072211;28;20150;-80
2022/03/05 00:08:03;;;;;;;59.53;21.87;;;;;;;1.54;59.24;94639.91;5072628;28;20162;-80
2022/03/05 00:10:29;;;;;;;59.53;23.53;;;;;;;1.50;60.47;94636.81;5072062;28;20676;-79
2022/03/05 00:12:54;;;;;;;47.73;20.87;;;;;;;1.05;60.16;94569.84;5080519;28;20166;-80
2022/03/05 00:15:24;;;;;;;48.53;19.53;;;;;;;1.26;59.57;94600.50;5088249;28;20188;-80
2022/03/05 00:17:50;;;;;;;48.40;20.47;;;;;;;1.46;59.71;94643.31;5092608;28;20597;-79
2022/03/05 00:20:16;;;;;;;50.23;19.73;;;;;;;1.51;60.07;94639.25;5092318;28;20219;-80
2022/03/05 00:22:41;;;;;;;46.20;18.70;;;;;;;1.36;59.27;94616.72;5092188;28;20537;-80
2022/03/05 00:25:08;;;;;;;42.63;19.30;;;;;;;1.44;59.07;94640.88;5087728;28;20185;-80
2022/03/05 00:27:33;;;;;;;43.10;18.77;;;;;;;1.47;59.76;94650.13;5080319;28;20607;-80
2022/03/05 00:29:59;;;;;;;43.27;18.07;;;;;;;1.42;59.78;94645.41;5082894;28;20253;-80
2022/03/05 00:32:25;;;;;;;49.03;19.57;;;;;;;1.45;59.85;94646.88;5083783;28;20170;-80
2022/03/05 00:34:50;;;;;;;49.70;22.87;;;;;;;1.48;59.35;94646.53;5092472;28;20679;-80
2022/03/05 00:37:16;;;;;;;52.17;22.63;;;;;;;0.98;60.00;94566.28;5092628;28;20208;-81
2022/03/05 00:39:41;;;;;;;83.17;34.63;;;;;;;1.50;60.25;94648.00;5090469;28;20162;-81
2022/03/05 00:42:07;;;;;;;77.40;35.30;;;;;;;1.48;60.33;94651.72;5082511;28;20178;-81
2022/03/05 00:44:33;;;;;;;74.27;33.13;;;;;;;1.44;60.49;94635.69;5083308;28;20201;-81
2022/03/05 00:46:58;;;;;;;60.97;28.53;;;;;;;0.94;60.55;94563.22;5073569;28;20231;-81
2022/03/05 00:49:25;;;;;;;60.50;26.87;;;;;;;0.80;61.06;94542.28;5079390;28;20201;-81
2022/03/05 00:51:52;;;;;;;45.93;22.80;;;;;;;1.34;61.42;94635.00;5070422;28;20162;-81
2022/03/05 00:54:18;;;;;;;45.03;19.90;;;;;;;1.29;61.32;94631.28;5071941;28;20187;-81
2022/03/05 00:56:43;;;;;;;42.67;18.53;;;;;;;0.67;60.09;94529.78;5070781;28;20642;-81
2022/03/05 00:59:09;;;;;;;43.00;19.37;;;;;;;0.62;61.15;94530.25;5073215;28;20200;-81
2022/03/05 01:01:34;;;;;;;42.70;19.57;;;;;;;0.87;61.13;94561.38;5085207;28;20174;-80
2022/03/05 01:03:59;;;;;;;37.87;16.23;;;;;;;1.09;61.27;94602.25;5078079;28;20691;-81
2022/03/05 01:06:27;;;;;;;43.37;18.07;;;;;;;0.91;61.40;94579.06;5085562;28;20236;-81
2022/03/05 01:09:18;;;;;;;52.40;18.07;;;;;;;1.16;61.28;94625.75;5095336;28;20207;-81
2022/03/05 01:11:43;;;;;;;38.73;16.40;;;;;;;0.78;61.05;94565.72;5095508;28;20158;-82
2022/03/05 01:14:29;;;;;;;36.53;17.30;;;;;;;1.14;61.84;94620.72;5095243;28;20146;-81
2022/03/05 01:16:54;;;;;;;41.60;16.70;;;;;;;1.03;62.19;94608.91;5095046;28;20211;-81
2022/03/05 01:19:43;;;;;;;37.33;17.43;;;;;;;1.03;62.35;94624.44;5095121;28;20651;-81
2022/03/05 01:22:08;;;;;;;34.90;15.83;;;;;;;0.92;62.04;94601.41;5095046;28;20162;-81
2022/03/05 01:24:33;;;;;;;44.37;19.43;;;;;;;0.89;63.25;94596.53;5086483;28;20249;-81
2022/03/05 01:27:02;;;;;;;44.27;19.63;;;;;;;0.69;62.94;94554.53;5084279;28;20166;-81
2022/03/05 01:29:27;;;;;;;39.30;16.90;;;;;;;0.83;62.61;94586.00;5083363;28;20210;-80
2022/03/05 01:31:53;;;;;;;36.27;14.60;;;;;;;0.56;62.06;94543.03;5090513;28;20174;-81
2022/03/05 01:34:19;;;;;;;41.77;16.93;;;;;;;1.04;62.41;94609.69;5094795;28;20649;-81
2022/03/05 01:36:44;;;;;;;35.40;16.23;;;;;;;0.77;61.89;94579.69;5093503;28;20260;-81
2022/03/05 01:39:10;;;;;;;37.03;17.10;;;;;;;1.08;62.42;94614.41;5094723;28;20170;-81
2022/03/05 01:41:37;;;;;;;40.20;16.00;;;;;;;1.02;62.99;94603.84;5095229;28;20224;-81
2022/03/05 01:44:04;;;;;;;42.23;17.47;;;;;;;1.12;62.25;94620.09;5093469;28;20174;-81
2022/03/05 01:46:39;;;;;;;40.40;17.10;;;;;;;0.85;63.16;94571.94;5093380;28;20211;-81
2022/03/05 01:49:11;;;;;;;32.73;16.27;;;;;;;1.11;62.29;94618.47;5094474;28;20268;-81
2022/03/05 01:51:37;;;;;;;38.83;15.37;;;;;;;1.09;62.92;94617.81;5095121;28;20192;-81
2022/03/05 01:54:04;;;;;;;40.83;18.30;;;;;;;1.10;63.00;94619.44;5094646;28;20181;-81
2022/03/05 01:56:30;;;;;;;45.87;17.30;;;;;;;1.12;63.77;94612.31;5086543;28;20170;-80
2022/03/05 01:58:57;;;;;;;42.13;16.70;;;;;;;0.67;63.79;94545.34;5084350;28;20189;-81
2022/03/05 02:01:26;;;;;;;35.90;16.63;;;;;;;0.93;63.79;94584.09;5085201;28;20166;-81
2022/03/05 02:03:52;;;;;;;35.43;14.83;;;;;;;1.08;63.45;94613.59;5078490;28;20166;-81
2022/03/05 02:06:18;;;;;;;39.20;15.57;;;;;;;0.62;63.67;94526.84;5073948;28;20181;-81
2022/03/05 02:08:44;;;;;;;36.57;16.13;;;;;;;0.98;63.93;94566.28;5082829;28;20166;-81
2022/03/05 02:11:10;;;;;;;42.37;19.17;;;;;;;1.13;63.89;94581.03;5081451;28;20219;-81
2022/03/05 02:13:36;;;;;;;47.63;18.97;;;;;;;0.96;63.75;94544.88;5097254;28;20673;-81
2022/03/05 02:16:02;;;;;;;35.10;16.70;;;;;;;1.38;63.67;94607.81;5092110;28;20599;-81
2022/03/05 02:18:27;;;;;;;38.03;17.80;;;;;;;1.35;63.26;94602.13;5092702;28;20169;-81
2022/03/05 02:20:54;;;;;;;34.20;15.00;;;;;;;1.33;62.70;94601.47;5094242;28;20170;-81
2022/03/05 02:23:19;;;;;;;36.43;15.93;;;;;;;1.40;63.08;94602.44;5093949;28;20154;-81
2022/03/05 02:25:56;;;;;;;40.97;16.63;;;;;;;1.51;62.76;94617.69;5092664;28;20570;-81
2022/03/05 02:28:23;;;;;;;38.70;17.03;;;;;;;1.26;63.05;94582.34;5092517;28;20170;-81
2022/03/05 02:30:49;;;;;;;39.83;17.87;;;;;;;1.52;63.78;94616.72;5109247;28;20300;-81
2022/03/05 02:33:15;;;;;;;40.77;18.13;;;;;;;1.56;64.57;94618.00;5092338;28;20247;-81
2022/03/05 02:35:43;;;;;;;35.27;16.00;;;;;;;1.44;63.79;94588.19;5090711;28;20178;-81
2022/03/05 02:38:14;;;;;;;40.50;16.13;;;;;;;1.30;64.02;94548.16;5081976;28;20174;-80
2022/03/05 02:40:41;;;;;;;35.70;17.03;;;;;;;1.70;63.86;94599.22;5088159;28;20176;-81
2022/03/05 02:43:07;;;;;;;49.77;18.63;;;;;;;1.45;63.44;94558.69;5084291;28;20170;-81
2022/03/05 02:45:33;;;;;;;43.43;21.93;;;;;;;1.53;62.75;94571.66;5092639;28;20173;-81
2022/03/05 02:48:01;;;;;;;48.53;22.53;;;;;;;1.54;62.49;94564.69;5093341;28;20169;-81
2022/03/05 02:50:26;;;;;;;45.63;23.90;;;;;;;1.90;63.14;94610.84;5093260;28;20891;-81
2022/03/05 02:52:52;;;;;;;53.47;25.73;;;;;;;1.47;62.52;94541.22;5109009;28;20161;-81
2022/03/05 02:55:17;;;;;;;58.93;28.50;;;;;;;1.57;62.42;94548.78;5093905;28;20260;-81
2022/03/05 02:57:44;;;;;;;66.97;29.47;;;;;;;1.87;62.93;94606.00;5093501;28;20242;-81
2022/03/05 03:00:10;;;;;;;63.63;27.97;;;;;;;1.71;62.96;94574.09;5093259;28;20196;-81
2022/03/05 03:02:35;;;;;;;62.33;28.33;;;;;;;1.72;63.55;94571.34;5092898;28;20189;-81
2022/03/05 03:05:01;;;;;;;72.87;32.43;;;;;;;1.64;64.62;94566.16;5093230;28;20169;-81
2022/03/05 03:07:26;;;;;;;83.43;31.73;;;;;;;1.75;64.48;94576.19;5091716;28;20173;-81
2022/03/05 03:09:52;;;;;;;70.00;29.83;;;;;;;1.44;64.13;94544.94;5092851;28;20186;-81
2022/03/05 03:12:17;;;;;;;67.00;27.30;;;;;;;1.48;63.12;94558.34;5092935;28;20244;-81
2022/03/05 03:14:43;;;;;;;58.97;26.33;;;;;;;1.82;62.35;94616.06;5092918;28;20169;-81
2022/03/05 03:17:08;;;;;;;55.47;28.00;;;;;;;1.48;61.72;94571.31;5092832;28;20538;-81
2022/03/05 03:19:51;;;;;;;59.97;27.30;;;;;;;1.86;62.16;94627.75;5093378;28;20177;-80
2022/03/05 03:22:18;;;;;;;58.90;25.43;;;;;;;1.54;60.94;94570.69;5091831;28;20172;-81
2022/03/05 03:24:49;;;;;;;61.90;26.80;;;;;;;1.45;60.87;94558.69;5092574;28;20161;-81
2022/03/05 03:27:14;;;;;;;55.90;24.53;;;;;;;1.82;61.16;94626.44;5091462;28;20150;-81
2022/03/05 03:29:40;;;;;;;50.33;23.73;;;;;;;1.28;62.57;94538.94;5092469;28;20693;-81
2022/03/05 03:32:06;;;;;;;51.13;23.40;;;;;;;1.55;62.72;94571.50;5092609;28;20166;-81
2022/03/05 03:34:31;;;;;;;45.80;22.70;;;;;;;1.92;62.65;94615.06;5092528;28;20173;-81
2022/03/05 03:36:57;;;;;;;47.60;21.90;;;;;;;1.51;62.27;94563.22;5092516;28;20162;-82
2022/03/05 03:39:22;;;;;;;49.33;22.47;;;;;;;1.46;61.56;94555.94;5092551;28;20612;-81
2022/03/05 03:41:47;;;;;;;46.60;21.17;;;;;;;1.55;61.91;94579.28;5092406;28;20625;-82
2022/03/05 03:44:59;;;;;;;45.23;20.63;;;;;;;1.78;61.97;94624.34;5091206;28;20173;-82
2022/03/05 03:47:24;;;;;;;42.87;19.80;;;;;;;1.48;61.48;94571.31;5092954;28;20154;-82
2022/03/05 03:49:50;;;;;;;40.13;18.67;;;;;;;1.63;61.47;94590.47;5091038;28;20201;-81
2022/03/05 03:52:15;;;;;;;30.37;17.70;;;;;;;1.47;61.90;94569.72;5091080;28;20166;-81
2022/03/05 03:54:45;;;;;;;40.10;20.13;;;;;;;1.49;61.20;94573.75;5092384;28;20203;-82
2022/03/05 03:57:11;;;;;;;39.27;19.97;;;;;;;1.22;62.56;94529.19;5092354;28;20157;-82
2022/03/05 03:59:37;;;;;;;57.73;22.73;;;;;;;1.64;62.32;94617.22;5092337;28;20154;-82
2022/03/05 04:02:03;;;;;;;55.83;23.30;;;;;;;1.72;62.42;94625.00;5092174;28;20252;-81
2022/03/05 04:04:29;;;;;;;54.07;23.20;;;;;;;1.48;62.57;94600.66;5092399;28;20153;-81
2022/03/05 04:09:50;;;;;;;43.93;19.27;;;;;;;1.31;62.81;94577.47;5091984;28;20240;-82
2022/03/05 04:12:21;;;;;;;42.87;18.63;;;;;;;1.38;62.21;94597.44;5090782;28;20166;-82
2022/03/05 04:14:47;;;;;;;33.33;16.73;;;;;;;1.48;62.53;94612.81;5092393;28;20177;-82
2022/03/05 04:17:13;;;;;;;33.43;16.60;;;;;;;1.16;63.34;94569.53;5092063;28;20594;-81
2022/03/05 04:19:39;;;;;;;33.73;14.47;;;;;;;1.51;62.10;94639.25;5081604;28;20161;-81
2022/03/05 04:22:05;;;;;;;33.53;15.33;;;;;;;1.13;61.89;94591.38;5080994;28;20620;-81
2022/03/05 04:24:31;;;;;;;27.43;14.07;;;;;;;1.38;62.20;94632.94;5080557;28;20225;-81
2022/03/05 04:26:56;;;;;;;34.60;16.27;;;;;;;1.36;62.19;94638.25;5076134;28;20165;-81
2022/03/05 04:29:22;;;;;;;25.40;13.77;;;;;;;1.18;61.99;94614.25;5079018;28;20214;-82
2022/03/05 04:31:47;;;;;;;30.70;15.80;;;;;;;1.32;61.55;94649.91;5089339;28;20240;-80
2022/03/05 04:34:24;;;;;;;31.30;16.03;;;;;;;1.24;61.49;94655.09;5091982;28;20688;-79
2022/03/05 04:36:49;;;;;;;28.90;16.53;;;;;;;1.20;61.68;94651.19;5094775;28;20176;-80
2022/03/05 04:39:15;;;;;;;37.13;17.43;;;;;;;0.95;62.21;94611.44;5095892;28;20645;-80
2022/03/05 04:41:40;;;;;;;39.67;19.17;;;;;;;0.99;62.56;94624.91;5094564;28;20251;-79
2022/03/05 04:44:06;;;;;;;42.57;19.47;;;;;;;1.03;61.88;94626.22;5095795;28;20150;-80
2022/03/05 04:46:32;;;;;;;56.10;23.07;;;;;;;0.68;61.53;94567.69;5083139;28;20174;-79
2022/03/05 04:48:57;;;;;;;63.20;26.13;;;;;;;0.73;61.89;94592.13;5085559;28;20268;-79
2022/03/05 04:51:23;;;;;;;76.63;30.33;;;;;;;1.06;62.24;94644.03;5088783;28;20542;-79
2022/03/05 04:53:49;;;;;;;119.97;40.73;;;;;;;0.99;63.44;94641.25;5078025;28;20664;-79
2022/03/05 04:56:14;;;;;;;132.37;41.33;;;;;;;0.89;64.16;94643.16;5075863;28;20159;-79
2022/03/05 04:58:40;;;;;;;134.47;42.73;;;;;;;0.71;63.38;94603.59;5075452;28;20162;-79
2022/03/05 05:01:06;;;;;;;142.90;39.80;;;;;;;0.95;63.21;94657.28;5075545;28;20585;-80
2022/03/05 05:03:47;;;;;;;124.23;40.20;;;;;;;0.74;62.70;94632.59;5088380;28;20529;-79
2022/03/05 05:06:12;;;;;;;108.73;35.27;;;;;;;0.83;62.99;94645.56;5082052;28;20216;-81
2022/03/05 05:08:38;;;;;;;105.53;35.70;;;;;;;0.57;62.53;94612.78;5075305;28;20583;-80
2022/03/05 05:11:30;;;;;;;110.03;35.10;;;;;;;0.96;61.66;94664.06;5074937;28;20193;-80
2022/03/05 05:13:55;;;;;;;89.37;31.90;;;;;;;0.62;61.45;94620.06;5075492;28;20619;-80
2022/03/05 05:16:20;;;;;;;87.53;32.70;;;;;;;0.58;62.09;94606.66;5075310;28;20178;-80
2022/03/05 05:21:30;;;;;;;71.00;31.73;;;;;;;0.99;63.13;94667.16;5085295;28;20242;-80
2022/03/05 05:23:55;;;;;;;66.17;28.23;;;;;;;0.96;63.35;94664.88;5083602;28;20677;-79
2022/03/05 05:26:21;;;;;;;63.77;28.93;;;;;;;0.80;63.91;94628.56;5084368;28;20603;-80
2022/03/05 05:28:47;;;;;;;136.17;56.97;;;;;;;1.05;63.63;94676.91;5084786;28;20182;-80
2022/03/05 05:31:12;;;;;;;108.30;48.93;;;;;;;1.04;62.70;94677.03;5083612;28;20599;-80
2022/03/05 05:33:44;;;;;;;90.40;41.53;;;;;;;0.87;62.51;94647.69;5094802;28;20160;-79
2022/03/05 05:36:11;;;;;;;80.03;34.20;;;;;;;1.02;62.01;94674.63;5090118;28;20165;-81
2022/03/05 05:38:36;;;;;;;79.20;33.17;;;;;;;0.79;62.41;94639.88;5085428;28;20174;-81
2022/03/05 05:41:02;;;;;;;74.87;31.83;;;;;;;0.89;62.27;94661.31;5084534;28;20231;-81
2022/03/05 05:43:28;;;;;;;75.80;32.83;;;;;;;1.23;62.34;94715.66;5074987;28;20234;-81
2022/03/05 05:46:02;;;;;;;63.43;30.07;;;;;;;1.09;62.24;94691.19;5074471;28;20233;-80
2022/03/05 05:48:28;;;;;;;62.03;30.27;;;;;;;0.83;62.78;94630.84;5074566;28;20177;-81
2022/03/05 05:50:53;;;;;;;67.20;31.83;;;;;;;1.28;62.45;94695.28;5089763;28;20245;-81
2022/03/05 05:53:19;;;;;;;78.07;33.63;;;;;;;1.40;61.76;94712.16;5074275;28;20166;-81
2022/03/05 05:55:44;;;;;;;83.10;36.37;;;;;;;1.04;61.97;94646.75;5074415;28;20170;-81
2022/03/05 05:58:09;;;;;;;87.27;39.07;;;;;;;1.01;62.20;94639.31;5074424;28;20155;-81
2022/03/05 06:00:35;;;;;;;76.47;35.70;;;;;;;1.44;62.40;94705.69;5092631;28;20166;-81
2022/03/05 06:03:01;;;;;;;52.07;25.93;;;;;;;1.64;61.29;94728.75;5094328;28;20249;-81
2022/03/05 06:05:26;;;;;;;37.93;19.10;;;;;;;1.77;61.12;94735.09;5094814;28;20176;-81
2022/03/05 06:07:51;;;;;;;45.63;18.83;;;;;;;1.47;60.12;94674.25;5094254;28;20162;-81
2022/03/05 06:10:17;;;;;;;40.20;20.03;;;;;;;1.40;60.53;94646.50;5094028;28;20247;-82
2022/03/05 06:12:44;;;;;;;52.67;20.57;;;;;;;2.01;60.52;94739.47;5092855;28;20180;-81
2022/03/05 06:15:10;;;;;;;43.40;18.80;;;;;;;2.11;60.07;94734.13;5088751;28;20186;-81
2022/03/05 06:17:36;;;;;;;55.37;23.37;;;;;;;2.21;60.64;94743.41;5081399;28;20178;-81
2022/03/05 06:20:02;;;;;;;52.67;22.30;;;;;;;1.83;59.30;94674.75;5083882;28;20170;-82
2022/03/05 06:22:27;;;;;;;47.40;21.37;;;;;;;2.29;59.64;94742.56;5081607;28;20173;-81
2022/03/05 06:24:52;;;;;;;50.70;21.97;;;;;;;2.00;59.43;94695.50;5072552;28;20174;-81
2022/03/05 06:27:18;;;;;;;49.37;23.43;;;;;;;2.32;59.18;94734.47;5073637;28;20197;-82
2022/03/05 06:29:43;;;;;;;45.90;20.90;;;;;;;2.30;58.77;94728.63;5073437;28;20309;-82
2022/03/05 06:32:09;;;;;;;40.50;19.67;;;;;;;2.27;59.58;94721.97;5073816;28;20187;-82
2022/03/05 06:34:35;;;;;;;35.47;16.57;;;;;;;2.62;59.44;94758.94;5081962;28;20186;-82
2022/03/05 06:37:00;;;;;;;39.30;18.13;;;;;;;2.41;58.84;94704.13;5082479;28;20559;-81
2022/03/05 06:39:26;;;;;;;35.07;17.43;;;;;;;2.39;58.52;94691.28;5080107;28;20559;-81
2022/03/05 06:41:52;;;;;;;33.97;17.07;;;;;;;2.96;59.23;94756.09;5085989;28;20645;-81
2022/03/05 06:44:17;;;;;;;36.40;17.83;;;;;;;2.63;58.41;94683.44;5092363;28;20184;-81
2022/03/05 06:46:43;;;;;;;37.63;18.93;;;;;;;3.00;58.63;94727.03;5093766;28;20164;-81
2022/03/05 06:49:08;;;;;;;57.93;20.57;;;;;;;2.96;58.52;94685.91;5092203;28;20993;-81
2022/03/05 06:51:34;;;;;;;54.40;27.63;;;;;;;3.57;57.39;94752.78;5093797;28;20189;-80
2022/03/05 06:53:59;;;;;;;84.33;33.43;;;;;;;3.96;56.98;94765.75;5093404;28;20166;-81
2022/03/05 06:56:25;;;;;;;87.37;38.90;;;;;;;3.81;55.36;94694.56;5108981;28;20173;-80
2022/03/05 06:58:50;;;;;;;72.10;38.60;;;;;;;4.28;53.55;94750.88;5091410;28;20527;-80
2022/03/05 07:01:16;;;;;;;78.73;37.03;;;;;;;4.49;54.63;94759.66;5092159;28;20158;-80
2022/03/05 07:03:41;;;;;;;55.60;26.83;;;;;;;4.82;54.46;94761.97;5093122;28;20177;-80
2022/03/05 07:06:07;;;;;;;47.10;24.13;;;;;;;4.82;53.82;94715.03;5080936;28;20179;-80
2022/03/05 07:08:32;;;;;;;52.50;25.37;;;;;;;5.07;51.09;94736.44;5087636;28;20640;-80
2022/03/05 07:10:57;;;;;;;42.27;22.23;;;;;;;5.03;51.81;94704.69;5083930;28;20197;-81
2022/03/05 07:13:23;;;;;;;41.53;17.70;;;;;;;5.53;50.56;94755.34;5082697;28;20181;-81
2022/03/05 07:15:48;;;;;;;32.33;17.50;;;;;;;5.61;50.59;94742.97;5081962;28;20174;-81
2022/03/05 07:18:14;;;;;;;28.20;14.57;;;;;;;5.91;49.70;94751.56;5081790;28;20167;-80
2022/03/05 07:20:39;;;;;;;28.60;15.07;;;;;;;5.85;48.40;94702.66;5089988;28;20169;-80
2022/03/05 07:23:06;;;;;;;33.53;14.67;;;;;;;5.95;47.72;94691.94;5073544;28;20167;-79
2022/03/05 07:25:39;;;;;;;28.77;14.13;;;;;;;6.23;47.00;94695.41;5072855;28;20220;-81
2022/03/05 07:28:05;;;;;;;31.67;14.90;;;;;;;6.43;46.59;94688.53;5071391;28;20187;-80
2022/03/05 07:30:31;;;;;;;28.67;14.20;;;;;;;6.92;45.01;94750.44;5072543;28;20214;-80
2022/03/05 07:32:57;;;;;;;24.30;13.53;;;;;;;6.98;44.37;94746.28;5073129;28;20174;-80
2022/03/05 07:35:23;;;;;;;26.27;13.40;;;;;;;6.66;45.43;94714.44;5072752;28;20157;-81
2022/03/05 07:37:50;;;;;;;26.40;13.43;;;;;;;6.92;44.96;94737.38;5072836;28;20630;-81
2022/03/05 07:40:15;;;;;;;27.53;13.60;;;;;;;6.64;44.84;94665.97;5088281;28;20593;-80
2022/03/05 07:42:41;;;;;;;26.10;13.57;;;;;;;7.05;43.21;94724.38;5073110;28;20245;-80
2022/03/05 07:45:06;;;;;;;25.90;13.73;;;;;;;7.22;43.22;94742.41;5071451;28;20162;-80
2022/03/05 07:47:32;;;;;;;28.17;14.90;;;;;;;7.26;43.13;94746.25;5072433;28;20170;-80
2022/03/05 07:49:58;;;;;;;43.37;16.20;;;;;;;7.13;43.09;94739.13;5072522;28;20291;-81
2022/03/05 07:52:23;;;;;;;32.47;14.47;;;;;;;6.37;42.99;94685.88;5072611;28;20249;-81
2022/03/05 07:54:48;;;;;;;35.47;14.53;;;;;;;6.25;44.34;94690.00;5072263;28;20179;-81
2022/03/05 07:57:14;;;;;;;33.40;15.90;;;;;;;5.86;44.26;94666.91;5080474;28;20181;-82
2022/03/05 07:59:49;;;;;;;27.97;15.03;;;;;;;5.46;45.10;94661.25;5083583;28;20169;-85
2022/03/05 08:02:17;;;;;;;30.83;16.93;;;;;;;5.49;45.86;94668.72;5082075;28;20165;-83
2022/03/05 08:04:44;;;;;;;33.70;15.40;;;;;;;5.91;46.18;94754.19;5074684;28;20174;-82
2022/03/05 08:07:10;;;;;;;28.17;15.20;;;;;;;5.66;45.91;94751.06;5072091;28;20176;-82
2022/03/05 08:09:36;;;;;;;31.47;15.13;;;;;;;5.66;46.72;94756.28;5072509;28;20183;-81
2022/03/05 08:12:05;;;;;;;34.47;14.90;;;;;;;5.21;46.73;94689.47;5075373;28;20154;-81
2022/03/05 08:14:30;;;;;;;26.53;14.40;;;;;;;5.25;46.67;94679.50;5073086;28;20253;-82
2022/03/05 08:16:56;;;;;;;30.07;14.13;;;;;;;5.34;47.64;94667.16;5086339;28;20206;-83
2022/03/05 08:19:21;;;;;;;27.13;14.70;;;;;;;6.02;46.56;94750.28;5091404;28;20171;-82
2022/03/05 08:21:47;;;;;;;32.23;14.93;;;;;;;5.75;46.45;94703.94;5090253;28;20170;-82
2022/03/05 08:24:12;;;;;;;25.93;12.70;;;;;;;5.72;46.57;94681.63;5087074;28;20264;-82
2022/03/05 08:26:38;;;;;;;34.37;15.30;;;;;;;5.88;46.65;94704.91;5083570;28;20162;-82
2022/03/05 08:29:04;;;;;;;28.17;15.37;;;;;;;5.78;47.07;94661.81;5088271;28;20709;-81
2022/03/05 08:31:31;;;;;;;34.23;14.47;;;;;;;6.31;46.81;94695.25;5084965;28;20272;-83
2022/03/05 08:34:01;;;;;;;29.93;13.77;;;;;;;6.97;45.61;94749.91;5094106;28;20169;-83
2022/03/05 08:36:27;;;;;;;35.43;14.43;;;;;;;7.13;45.21;94737.31;5095094;28;20181;-84
2022/03/05 08:38:53;;;;;;;25.27;14.17;;;;;;;7.23;43.76;94746.63;5096699;28;20158;-81
2022/03/05 08:41:18;;;;;;;30.43;13.80;;;;;;;7.07;43.26;94729.44;5083398;28;20178;-84
2022/03/05 08:43:43;;;;;;;40.80;16.10;;;;;;;6.88;43.75;94707.38;5084638;28;20553;-83
2022/03/05 08:46:09;;;;;;;27.07;14.30;;;;;;;6.62;43.55;94694.09;5083400;28;20630;-85
2022/03/05 08:48:36;;;;;;;28.53;14.23;;;;;;;6.97;44.70;94760.38;5079729;28;20171;-82
2022/03/05 08:51:02;;;;;;;37.80;16.87;;;;;;;6.30;44.44;94657.09;5075873;28;20182;-83
2022/03/05 08:53:28;;;;;;;38.77;16.33;;;;;;;6.70;45.90;94723.53;5075650;28;20194;-82
2022/03/05 08:55:54;;;;;;;28.63;16.50;;;;;;;6.88;45.69;94745.81;5075105;28;20276;-82
2022/03/05 08:58:20;;;;;;;29.10;15.67;;;;;;;6.54;45.96;94699.47;5072220;28;20174;-83
2022/03/05 09:00:46;;;;;;;32.40;16.97;;;;;;;6.91;45.38;94759.31;5084568;28;20181;-83
2022/03/05 09:03:12;;;;;;;31.90;16.20;;;;;;;6.65;45.24;94699.78;5082236;28;20176;-83
2022/03/05 09:05:37;;;;;;;36.87;17.57;;;;;;;6.80;45.58;94733.69;5081268;28;20183;-83
2022/03/05 09:08:03;;;;;;;35.80;18.13;;;;;;;6.48;45.58;94695.84;5088139;28;20261;-82
2022/03/05 09:10:29;;;;;;;37.87;17.40;;;;;;;6.55;46.43;94709.75;5073973;28;20578;-81
2022/03/05 09:12:55;;;;;;;32.23;17.73;;;;;;;6.67;46.12;94734.38;5084445;28;20178;-81
2022/03/05 09:15:20;;;;;;;33.63;16.30;;;;;;;6.23;47.29;94691.97;5086210;28;20190;-81
2022/03/05 09:17:45;;;;;;;34.43;17.00;;;;;;;6.04;48.45;94675.16;5085606;28;20719;-81
2022/03/05 09:20:11;;;;;;;31.60;16.73;;;;;;;6.47;49.29;94746.50;5085887;28;20178;-81
2022/03/05 09:22:37;;;;;;;54.33;17.83;;;;;;;6.54;49.43;94741.31;5081106;28;20220;-81
2022/03/05 09:25:03;;;;;;;29.07;17.20;;;;;;;6.56;49.36;94736.72;5085983;28;20566;-81
2022/03/05 09:27:29;;;;;;;32.17;16.70;;;;;;;6.40;50.78;94737.75;5085912;28;20193;-82
2022/03/05 09:29:55;;;;;;;30.43;14.00;;;;;;;6.22;51.54;94698.22;5085323;28;20696;-82
2022/03/05 09:32:20;;;;;;;24.90;14.17;;;;;;;6.58;52.30;94737.31;5083266;28;20208;-81
2022/03/05 09:34:46;;;;;;;31.37;15.23;;;;;;;6.31;52.25;94702.31;5088179;28;20182;-82
2022/03/05 09:37:12;;;;;;;28.63;15.87;;;;;;;6.11;53.22;94660.34;5086010;28;20273;-81
2022/03/05 09:39:37;;;;;;;19.07;11.40;;;;;;;6.44;53.04;94724.16;5084303;28;20182;-81
2022/03/05 09:42:05;;;;;;;26.70;11.90;;;;;;;6.47;52.10;94735.22;5078173;28;20261;-81
2022/03/05 09:44:31;;;;;;;19.67;11.80;;;;;;;6.35;52.25;94693.91;5080155;28;20202;-80
2022/03/05 09:46:57;;;;;;;24.87;13.37;;;;;;;6.01;52.46;94659.84;5080850;28;20258;-81
2022/03/05 09:49:32;;;;;;;24.23;13.40;;;;;;;6.56;52.68;94716.59;5073972;28;20213;-81
2022/03/05 09:52:00;;;;;;;24.70;12.87;;;;;;;6.63;51.66;94666.97;5087333;28;20571;-83
2022/03/05 09:54:29;;;;;;;24.93;13.60;;;;;;;6.98;50.74;94710.47;5094372;28;20178;-82
2022/03/05 09:56:55;;;;;;;25.97;14.37;;;;;;;7.01;50.51;94696.16;5083068;28;20178;-81
2022/03/05 09:59:21;;;;;;;20.93;13.50;;;;;;;7.10;51.09;94684.53;5082619;28;20182;-82
2022/03/05 10:01:47;;;;;;;27.03;12.30;;;;;;;7.36;49.90;94723.13;5082625;28;20277;-85
2022/03/05 10:04:23;;;;;;;21.20;11.93;;;;;;;7.11;49.85;94668.66;5085472;28;20184;-87
2022/03/05 10:07:14;;;;;;;25.23;12.50;;;;;;;7.25;49.98;94721.88;5073815;28;20691;-84
2022/03/05 10:09:41;;;;;;;15.93;10.03;;;;;;;6.96;51.00;94715.06;5078280;28;20715;-83
2022/03/05 10:12:31;;;;;;;25.07;17.23;;;;;;;7.01;50.97;94714.47;5080947;28;20170;-82
2022/03/05 10:15:05;;;;;;;25.57;12.90;;;;;;;7.21;50.92;94712.78;5084471;28;20190;-82
2022/03/05 10:17:56;;;;;;;24.93;13.47;;;;;;;7.53;49.93;94716.56;5091525;28;20168;-81
2022/03/05 10:21:16;;;;;;;23.97;13.33;;;;;;;7.42;50.13;94715.31;5088365;28;20177;-81
2022/03/05 10:23:47;;;;;;;25.87;12.33;;;;;;;7.38;50.98;94713.28;5087383;28;20278;-81
2022/03/05 10:26:14;;;;;;;22.23;11.33;;;;;;;6.76;51.79;94680.91;5081759;28;20162;-82
2022/03/05 10:28:40;;;;;;;18.07;10.63;;;;;;;6.97;52.15;94714.06;5081994;28;20171;-83
2022/03/05 10:31:09;;;;;;;24.23;12.67;;;;;;;6.48;52.89;94667.06;5081351;28;20248;-83
2022/03/05 10:33:45;;;;;;;29.00;12.73;;;;;;;6.09;53.95;94644.03;5082071;28;20181;-83
2022/03/05 10:36:21;;;;;;;24.23;12.37;;;;;;;6.63;54.68;94706.19;5087555;28;20222;-82
2022/03/05 10:38:55;;;;;;;23.63;10.90;;;;;;;6.58;54.27;94703.31;5086662;28;20177;-82
2022/03/05 10:41:30;;;;;;;20.13;12.23;;;;;;;6.44;54.85;94703.22;5075087;28;20154;-81
2022/03/05 10:44:10;;;;;;;30.40;12.47;;;;;;;6.13;56.51;94696.72;5082625;28;20242;-81
2022/03/05 10:46:54;;;;;;;23.67;12.20;;;;;;;5.97;57.28;94700.38;5087514;28;20431;-80
2022/03/05 10:49:28;;;;;;;20.10;11.67;;;;;;;5.71;58.41;94694.88;5080544;28;20532;-81
2022/03/05 10:52:00;;;;;;;21.83;12.93;;;;;;;5.76;58.72;94685.50;5079806;28;20224;-81
2022/03/05 10:54:41;;;;;;;20.37;12.53;;;;;;;5.44;58.23;94621.50;5083990;28;20264;-81
2022/03/05 10:57:23;;;;;;;27.03;13.00;;;;;;;5.89;58.51;94682.22;5080217;28;20198;-80
2022/03/05 10:59:50;;;;;;;21.00;12.83;;;;;;;5.87;59.08;94685.00;5076067;28;20227;-80
2022/03/05 11:02:18;;;;;;;37.77;13.43;;;;;;;5.72;60.04;94679.00;5084581;28;20641;-81
2022/03/05 11:04:45;;;;;;;19.80;12.23;;;;;;;5.59;60.78;94665.81;5081314;28;20633;-81
2022/03/05 11:07:11;;;;;;;24.17;13.00;;;;;;;5.56;61.53;94671.41;5081871;28;20182;-80
2022/03/05 11:09:39;;;;;;;23.57;11.83;;;;;;;5.60;60.89;94670.88;5092427;28;20668;-80
2022/03/05 11:12:41;;;;;;;22.73;13.17;;;;;;;5.33;62.31;94674.16;5091774;28;20169;-81
2022/03/05 11:15:08;;;;;;;19.93;11.87;;;;;;;5.07;63.22;94655.59;5084888;28;20268;-81
2022/03/05 11:17:34;;;;;;;27.10;14.10;;;;;;;5.07;63.82;94637.31;5081961;28;20174;-81
2022/03/05 11:19:59;;;;;;;23.20;13.30;;;;;;;4.88;63.01;94552.66;5081544;28;20174;-81
2022/03/05 11:22:27;;;;;;;25.37;13.80;;;;;;;5.82;62.56;94658.63;5077478;28;20200;-80
2022/03/05 11:24:55;;;;;;;25.33;13.80;;;;;;;6.00;61.35;94653.81;5076031;28;20172;-81
2022/03/05 11:27:21;;;;;;;24.17;13.20;;;;;;;5.83;62.30;94647.19;5083427;28;20174;-81
2022/03/05 11:30:04;;;;;;;19.00;12.00;;;;;;;5.76;62.52;94617.59;5078705;28;20221;-82
2022/03/05 11:32:45;;;;;;;19.73;11.50;;;;;;;5.46;63.47;94609.06;5075954;28;20646;-80